Decoded Metar for K1P1 (PLYMOUTH in NH, USA) (IATA:1P1) | Meteo·Mobile Aviation Weather
aviador You're here:

K1P1 Decoded Metar

PLYMOUTH in NH, USA
Report Time2019-08-19 18:15:00
UTC Time2019-08-19 18:27:22
Flight Rules vfr VFR
Wind270° at 05 kt
Visibility9999 m
Phenomena:N/A
Clouds:Scattered 060 Hf
Scattered 120 Hf
Expected CloudBase > 4,000 ft AGL from Temp-Dew spread
CeilingNone
Temp29°C (ISA +15)
Dew Point19°C (55% RH)
Heat Index30.3°C
QNH1013 hPa
Density Alt2,520 ft
Elevation505 ft
Report Wrong Elevation
Raw Report
K1P1 191815Z AUTO 27005KT 10SM SCT060 SCT120 29/19 A2991 RMK AO2
T02920190=

Extra information for K1P1:More info

Metar Taf Metar & Taf Last 4 Metars F.Rules Stats Wind Profile Meteogram Temp Stats Airport Information Weather charts Add Link Nearby VenuesMetar ALERT Operation Metar Decoded Social comments

AIRNAV info for K1P1